Time;durP1;ratioP1;P1;durP2;ratioP2;P2;SDS_P1;SDS_P2;PMS_P1;PMS_P2;Temp;Humidity;BMP_temperature;BMP_pressure;BME280_temperature;BME280_humidity;BME280_pressure;Samples;Min_cycle;Max_cycle;Signal;HPM_P1;HPM_P2
2023/04/05 00:02:09;;;;;;;;;;;5.20;69.80;;;;;;5099215;27;89426;-42
2023/04/05 00:04:37;;;;;;;;;;;5.20;69.80;;;;;;5103042;27;87125;-42
2023/04/05 00:07:07;;;;;;;;;;;5.10;69.70;;;;;;5103243;27;87764;-42
2023/04/05 00:09:32;;;;;;;;;;;5.10;69.80;;;;;;5102982;27;89192;-42
2023/04/05 00:11:57;;;;;;;;;;;5.20;69.70;;;;;;5103427;27;87480;-41
2023/04/05 00:14:23;;;;;;;;;;;5.10;69.80;;;;;;5102639;27;88903;-42
2023/04/05 00:16:49;;;;;;;;;;;5.10;69.70;;;;;;5106666;27;88882;-42
2023/04/05 00:19:14;;;;;;;;;;;5.10;69.80;;;;;;5103216;27;88157;-42
2023/04/05 00:21:40;;;;;;;;;;;5.10;69.80;;;;;;5103054;27;89114;-41
2023/04/05 00:24:06;;;;;;;;;;;5.10;69.90;;;;;;5102275;27;88050;-41
2023/04/05 00:26:32;;;;;;;;;;;5.10;69.70;;;;;;5099255;27;89643;-42
2023/04/05 00:28:57;;;;;;;;;;;5.10;69.80;;;;;;5102931;27;88108;-41
2023/04/05 00:31:23;;;;;;;;;;;5.10;69.60;;;;;;5098986;27;87136;-42
2023/04/05 00:33:49;;;;;;;;;;;5.10;69.70;;;;;;5102778;27;89122;-42
2023/04/05 00:36:15;;;;;;;;;;;5.00;69.80;;;;;;5102876;27;87835;-42
2023/04/05 00:38:41;;;;;;;;;;;5.00;69.70;;;;;;5105903;27;87163;-41
2023/04/05 00:41:07;;;;;;;;;;;5.00;69.80;;;;;;5103080;27;87831;-42
2023/04/05 00:43:32;;;;;;;;;;;5.00;69.80;;;;;;5102810;27;87395;-42
2023/04/05 00:45:59;;;;;;;;;;;5.00;69.80;;;;;;5102600;27;88738;-42
2023/04/05 00:48:24;;;;;;;;;;;5.00;69.80;;;;;;5101638;27;90318;-41
2023/04/05 00:50:51;;;;;;;;;;;5.00;69.90;;;;;;5102713;27;87152;-42
2023/04/05 00:53:20;;;;;;;;;;;4.90;69.90;;;;;;5102454;27;88744;-42
2023/04/05 00:55:49;;;;;;;;;;;4.90;69.70;;;;;;5102636;27;88054;-42
2023/04/05 00:58:18;;;;;;;;;;;4.90;69.80;;;;;;5102949;27;86995;-42
2023/04/05 01:00:46;;;;;;;;;;;4.90;69.70;;;;;;5105109;27;88734;-42
2023/04/05 01:03:12;;;;;;;;;;;4.90;69.90;;;;;;5099717;27;87479;-41
2023/04/05 01:05:52;;;;;;;;;;;4.90;69.80;;;;;;5102245;27;87338;-42
2023/04/05 01:08:27;;;;;;;;;;;4.90;69.70;;;;;;5100177;27;89242;-42
2023/04/05 01:10:56;;;;;;;;;;;4.90;69.60;;;;;;5102499;27;87350;-42
2023/04/05 01:13:23;;;;;;;;;;;4.90;69.60;;;;;;5101447;27;88639;-42
2023/04/05 01:15:49;;;;;;;;;;;4.90;69.50;;;;;;5102274;27;88079;-42
2023/04/05 01:18:14;;;;;;;;;;;4.90;69.70;;;;;;5102635;27;87133;-42
2023/04/05 01:20:43;;;;;;;;;;;4.90;69.70;;;;;;5102336;27;88648;-42
2023/04/05 01:23:18;;;;;;;;;;;4.90;69.60;;;;;;5104743;27;89474;-42
2023/04/05 01:25:52;;;;;;;;;;;4.80;69.70;;;;;;5102313;27;88828;-41
2023/04/05 01:28:21;;;;;;;;;;;4.80;69.60;;;;;;5101469;27;89351;-41
2023/04/05 01:30:50;;;;;;;;;;;4.80;69.70;;;;;;5103000;27;86761;-41
2023/04/05 01:33:23;;;;;;;;;;;4.80;69.70;;;;;;5102373;27;87274;-42
2023/04/05 01:35:55;;;;;;;;;;;4.80;69.60;;;;;;5101898;27;88133;-42
2023/04/05 01:38:24;;;;;;;;;;;4.80;69.60;;;;;;5098184;27;87950;-41
2023/04/05 01:40:50;;;;;;;;;;;4.80;69.80;;;;;;5102039;27;90527;-41
2023/04/05 01:43:16;;;;;;;;;;;4.80;69.60;;;;;;5101778;27;87223;-42
2023/04/05 01:45:42;;;;;;;;;;;4.80;69.70;;;;;;5105317;27;87206;-42
2023/04/05 01:48:08;;;;;;;;;;;4.80;69.70;;;;;;5105598;27;88030;-42
2023/04/05 01:50:34;;;;;;;;;;;4.70;69.70;;;;;;5105633;27;87208;-42
2023/04/05 01:53:00;;;;;;;;;;;4.70;69.70;;;;;;5105591;27;88660;-42
2023/04/05 01:55:25;;;;;;;;;;;4.70;69.80;;;;;;5105338;27;88625;-41
2023/04/05 01:57:51;;;;;;;;;;;4.70;69.70;;;;;;5106035;27;87210;-41
2023/04/05 02:00:16;;;;;;;;;;;4.70;69.80;;;;;;5106025;27;87235;-41
2023/04/05 02:02:42;;;;;;;;;;;4.70;69.90;;;;;;5104597;27;90890;-41
2023/04/05 02:05:08;;;;;;;;;;;4.70;69.80;;;;;;5108247;27;87612;-41
2023/04/05 02:07:33;;;;;;;;;;;4.70;69.70;;;;;;5105163;27;87994;-42
2023/04/05 02:09:59;;;;;;;;;;;4.70;69.80;;;;;;5105506;27;87141;-42
2023/04/05 02:12:24;;;;;;;;;;;4.70;69.70;;;;;;5104806;27;88841;-41
2023/04/05 02:14:51;;;;;;;;;;;4.70;69.70;;;;;;5104846;27;87907;-41
2023/04/05 02:17:17;;;;;;;;;;;4.70;69.70;;;;;;5105397;27;87294;-41
2023/04/05 02:19:44;;;;;;;;;;;4.70;69.70;;;;;;5105783;27;87045;-42
2023/04/05 02:22:10;;;;;;;;;;;4.70;69.80;;;;;;5105122;27;88041;-42
2023/04/05 02:24:36;;;;;;;;;;;4.60;69.70;;;;;;5104846;27;87251;-41
2023/04/05 02:27:01;;;;;;;;;;;4.70;69.80;;;;;;5106907;27;88088;-41
2023/04/05 02:29:27;;;;;;;;;;;4.70;69.70;;;;;;5104707;27;86939;-41
2023/04/05 02:31:53;;;;;;;;;;;4.60;69.70;;;;;;5105096;27;88969;-42
2023/04/05 02:34:19;;;;;;;;;;;4.60;69.80;;;;;;5104200;27;89271;-41
2023/04/05 02:36:44;;;;;;;;;;;4.60;69.90;;;;;;5105095;27;87052;-41
2023/04/05 02:39:10;;;;;;;;;;;4.60;69.90;;;;;;5104976;27;88944;-42
2023/04/05 02:41:35;;;;;;;;;;;4.60;69.70;;;;;;5104346;27;89492;-42
2023/04/05 02:44:01;;;;;;;;;;;4.60;69.90;;;;;;5104964;27;86863;-41
2023/04/05 02:46:27;;;;;;;;;;;4.60;69.80;;;;;;5104686;27;88184;-42
2023/04/05 02:48:52;;;;;;;;;;;4.60;69.80;;;;;;5107338;27;89006;-41
2023/04/05 02:51:17;;;;;;;;;;;4.60;69.90;;;;;;5104083;27;89047;-41
2023/04/05 02:53:46;;;;;;;;;;;4.60;69.90;;;;;;5104158;27;89876;-42
2023/04/05 02:56:13;;;;;;;;;;;4.60;69.90;;;;;;5104566;27;87484;-42
2023/04/05 02:58:39;;;;;;;;;;;4.60;69.90;;;;;;5104767;27;88706;-42
2023/04/05 03:01:05;;;;;;;;;;;4.60;69.90;;;;;;5100157;27;88358;-41
2023/04/05 03:03:33;;;;;;;;;;;4.60;69.90;;;;;;5104720;27;87116;-42
2023/04/05 03:06:00;;;;;;;;;;;4.60;69.90;;;;;;5104209;27;89062;-42
2023/04/05 03:08:27;;;;;;;;;;;4.50;69.90;;;;;;5104639;27;88657;-42
2023/04/05 03:10:53;;;;;;;;;;;4.60;69.70;;;;;;5106913;27;87163;-41
2023/04/05 03:13:18;;;;;;;;;;;4.50;69.90;;;;;;5103534;27;89219;-42
2023/04/05 03:15:44;;;;;;;;;;;4.50;70.00;;;;;;5103644;27;87965;-41
2023/04/05 03:18:09;;;;;;;;;;;4.50;69.90;;;;;;5104355;27;89613;-42
2023/04/05 03:20:41;;;;;;;;;;;4.50;69.90;;;;;;5103821;27;89457;-42
2023/04/05 03:23:09;;;;;;;;;;;4.50;69.90;;;;;;5103977;27;87084;-41
2023/04/05 03:25:39;;;;;;;;;;;4.50;69.80;;;;;;5100395;27;88774;-42
2023/04/05 03:28:05;;;;;;;;;;;4.50;69.90;;;;;;5103738;27;88023;-41
2023/04/05 03:30:31;;;;;;;;;;;4.50;69.90;;;;;;5104015;27;87393;-42
2023/04/05 03:33:00;;;;;;;;;;;4.40;70.00;;;;;;5106877;27;87523;-42
2023/04/05 03:35:26;;;;;;;;;;;4.50;69.90;;;;;;5103780;27;86940;-41
2023/04/05 03:37:52;;;;;;;;;;;4.40;69.90;;;;;;5103768;27;87413;-42
2023/04/05 03:40:17;;;;;;;;;;;4.40;70.00;;;;;;5103407;27;88948;-42
2023/04/05 03:42:43;;;;;;;;;;;4.40;69.80;;;;;;5099663;27;87132;-42
2023/04/05 03:45:09;;;;;;;;;;;4.40;70.00;;;;;;5104061;27;88720;-42
2023/04/05 03:47:34;;;;;;;;;;;4.40;70.00;;;;;;5103883;27;87952;-42
2023/04/05 03:50:01;;;;;;;;;;;4.40;69.90;;;;;;5103672;27;87232;-41
2023/04/05 03:52:27;;;;;;;;;;;4.40;69.80;;;;;;5106070;27;88585;-41
2023/04/05 03:54:52;;;;;;;;;;;4.40;69.90;;;;;;5103918;27;87109;-42
2023/04/05 03:57:18;;;;;;;;;;;4.40;70.00;;;;;;5104124;27;87360;-42
2023/04/05 03:59:43;;;;;;;;;;;4.30;70.00;;;;;;5103603;27;88100;-42
2023/04/05 04:02:09;;;;;;;;;;;4.40;70.00;;;;;;5103552;27;87085;-42
2023/04/05 04:04:34;;;;;;;;;;;4.40;69.90;;;;;;5103424;27;87913;-41
2023/04/05 04:07:00;;;;;;;;;;;4.40;69.90;;;;;;5103303;27;89263;-41
2023/04/05 04:09:28;;;;;;;;;;;4.40;69.80;;;;;;5103190;27;87118;-42
2023/04/05 04:11:55;;;;;;;;;;;4.40;70.00;;;;;;5103226;27;88963;-41
2023/04/05 04:14:21;;;;;;;;;;;4.40;69.90;;;;;;5105725;27;88058;-41
2023/04/05 04:16:46;;;;;;;;;;;4.30;69.90;;;;;;5103196;27;88631;-41
2023/04/05 04:19:12;;;;;;;;;;;4.40;70.00;;;;;;5099122;27;87989;-42
2023/04/05 04:21:38;;;;;;;;;;;4.30;69.90;;;;;;5103912;27;86679;-42
2023/04/05 04:24:04;;;;;;;;;;;4.40;70.00;;;;;;5103322;27;88029;-42
2023/04/05 04:26:36;;;;;;;;;;;4.40;70.00;;;;;;5102638;27;91124;-42
2023/04/05 04:29:05;;;;;;;;;;;4.30;69.80;;;;;;5102839;27;88395;-42
2023/04/05 04:31:32;;;;;;;;;;;4.30;69.90;;;;;;5099809;27;89653;-42
2023/04/05 04:33:58;;;;;;;;;;;4.30;69.90;;;;;;5102622;27;89442;-41
2023/04/05 04:36:35;;;;;;;;;;;4.30;70.00;;;;;;5106036;27;87181;-42
2023/04/05 04:39:04;;;;;;;;;;;4.30;69.90;;;;;;5098925;27;89320;-41
2023/04/05 04:41:32;;;;;;;;;;;4.30;69.90;;;;;;5103206;27;87075;-41
2023/04/05 04:44:01;;;;;;;;;;;4.20;70.00;;;;;;5102608;27;87866;-42
2023/04/05 04:46:33;;;;;;;;;;;4.30;69.90;;;;;;5103131;27;88640;-42
2023/04/05 04:49:04;;;;;;;;;;;4.30;69.90;;;;;;5103138;27;87101;-42
2023/04/05 04:51:30;;;;;;;;;;;4.20;70.00;;;;;;5102841;27;88591;-42
2023/04/05 04:53:56;;;;;;;;;;;4.30;69.90;;;;;;5101883;27;90488;-41
2023/04/05 04:56:21;;;;;;;;;;;4.30;69.80;;;;;;5102381;27;87117;-42
2023/04/05 04:58:47;;;;;;;;;;;4.30;69.80;;;;;;5105829;27;87428;-42
2023/04/05 05:01:12;;;;;;;;;;;4.20;69.90;;;;;;5102965;27;87264;-42
2023/04/05 05:03:38;;;;;;;;;;;4.20;69.80;;;;;;5103080;27;88799;-42
2023/04/05 05:06:04;;;;;;;;;;;4.20;70.10;;;;;;5102318;27;89539;-42
2023/04/05 05:08:30;;;;;;;;;;;4.20;69.90;;;;;;5102465;27;87552;-42
2023/04/05 05:10:55;;;;;;;;;;;4.30;69.80;;;;;;5103476;27;88757;-42
2023/04/05 05:13:21;;;;;;;;;;;4.20;69.80;;;;;;5098119;27;88218;-42
2023/04/05 05:15:47;;;;;;;;;;;4.20;69.80;;;;;;5103032;27;87057;-42
2023/04/05 05:18:13;;;;;;;;;;;4.20;69.90;;;;;;5102362;27;88832;-42
2023/04/05 05:20:38;;;;;;;;;;;4.20;69.80;;;;;;5105562;27;89775;-42
2023/04/05 05:23:04;;;;;;;;;;;4.20;69.80;;;;;;5105986;27;88750;-42
2023/04/05 05:25:30;;;;;;;;;;;4.20;69.80;;;;;;5105687;27;89368;-42
2023/04/05 05:27:56;;;;;;;;;;;4.20;70.50;;;;;;5106496;27;87041;-42
2023/04/05 05:30:21;;;;;;;;;;;4.20;69.90;;;;;;5106214;27;87303;-42
2023/04/05 05:32:47;;;;;;;;;;;4.20;69.90;;;;;;5105639;27;89443;-42
2023/04/05 05:35:12;;;;;;;;;;;4.20;69.80;;;;;;5106408;27;86356;-42
2023/04/05 05:37:38;;;;;;;;;;;4.20;69.70;;;;;;5106348;27;86909;-42
2023/04/05 05:40:04;;;;;;;;;;;4.20;70.40;;;;;;5105521;27;89175;-41
2023/04/05 05:42:31;;;;;;;;;;;4.20;69.70;;;;;;5108613;27;88236;-41
2023/04/05 05:44:57;;;;;;;;;;;4.20;69.80;;;;;;5105482;27;90138;-41
2023/04/05 05:47:22;;;;;;;;;;;4.10;69.90;;;;;;5105710;27;87098;-41
2023/04/05 05:49:48;;;;;;;;;;;4.20;69.80;;;;;;5105839;27;87288;-41
2023/04/05 05:52:14;;;;;;;;;;;4.20;69.80;;;;;;5105182;27;88712;-42
2023/04/05 05:54:39;;;;;;;;;;;4.20;69.90;;;;;;5105208;27;87115;-42
2023/04/05 05:57:05;;;;;;;;;;;4.20;70.00;;;;;;5105936;27;86996;-42
2023/04/05 05:59:30;;;;;;;;;;;4.10;69.90;;;;;;5105787;27;88627;-42
2023/04/05 06:01:56;;;;;;;;;;;4.20;69.80;;;;;;5108739;27;87031;-42
2023/04/05 06:04:21;;;;;;;;;;;4.20;69.80;;;;;;5104662;27;89223;-41
2023/04/05 06:06:47;;;;;;;;;;;4.20;69.90;;;;;;5105067;27;88140;-41
2023/04/05 06:09:14;;;;;;;;;;;4.20;69.80;;;;;;5105400;27;89595;-41
2023/04/05 06:11:40;;;;;;;;;;;4.20;69.80;;;;;;5105093;27;89225;-42
2023/04/05 06:14:05;;;;;;;;;;;4.20;69.70;;;;;;5104507;27;87472;-42
2023/04/05 06:16:31;;;;;;;;;;;4.10;69.80;;;;;;5104936;27;87454;-41
2023/04/05 06:18:56;;;;;;;;;;;4.10;69.90;;;;;;5103630;27;89203;-41
2023/04/05 06:21:22;;;;;;;;;;;4.10;69.90;;;;;;5104335;27;87108;-41
2023/04/05 06:23:48;;;;;;;;;;;4.10;69.80;;;;;;5107283;27;88691;-42
2023/04/05 06:26:22;;;;;;;;;;;4.10;69.80;;;;;;5104216;27;87126;-42
2023/04/05 06:28:47;;;;;;;;;;;4.10;69.80;;;;;;5101179;27;87452;-42
2023/04/05 06:31:15;;;;;;;;;;;4.10;69.80;;;;;;5102836;27;89196;-42
2023/04/05 06:33:40;;;;;;;;;;;4.10;69.90;;;;;;5103405;27;87061;-42
2023/04/05 06:36:06;;;;;;;;;;;4.10;70.00;;;;;;5104151;27;89035;-41
2023/04/05 06:38:32;;;;;;;;;;;4.10;69.90;;;;;;5103791;27;90051;-41
2023/04/05 06:40:57;;;;;;;;;;;4.10;70.00;;;;;;5104443;27;87363;-42
2023/04/05 06:43:23;;;;;;;;;;;4.10;70.00;;;;;;5102644;27;90463;-42
2023/04/05 06:45:48;;;;;;;;;;;4.10;70.40;;;;;;5106752;27;87869;-42
2023/04/05 06:48:13;;;;;;;;;;;4.10;69.80;;;;;;5103938;27;88390;-42
2023/04/05 06:50:39;;;;;;;;;;;4.00;69.90;;;;;;5103833;27;89689;-42
2023/04/05 06:53:05;;;;;;;;;;;4.10;70.00;;;;;;5103699;27;87563;-42
2023/04/05 06:55:31;;;;;;;;;;;4.10;70.00;;;;;;5098913;27;88706;-41
2023/04/05 06:57:56;;;;;;;;;;;4.10;70.00;;;;;;5103402;27;89258;-41
2023/04/05 07:00:22;;;;;;;;;;;4.10;70.10;;;;;;5103833;27;87112;-42
2023/04/05 07:02:48;;;;;;;;;;;4.00;70.00;;;;;;5103551;27;87616;-42
2023/04/05 07:05:13;;;;;;;;;;;4.00;70.00;;;;;;5102618;27;89990;-42
2023/04/05 07:07:41;;;;;;;;;;;4.00;70.00;;;;;;5106749;27;87108;-41
2023/04/05 07:10:07;;;;;;;;;;;4.00;70.10;;;;;;5099471;27;89468;-42
2023/04/05 07:12:32;;;;;;;;;;;4.00;70.10;;;;;;5103758;27;86720;-42
2023/04/05 07:14:58;;;;;;;;;;;4.00;70.20;;;;;;5059762;27;1231015;-42
2023/04/05 07:17:24;;;;;;;;;;;4.00;70.20;;;;;;5103990;27;89501;-41
2023/04/05 07:19:50;;;;;;;;;;;4.00;70.20;;;;;;5103503;27;88049;-41
2023/04/05 07:22:15;;;;;;;;;;;4.00;70.20;;;;;;5104626;27;88119;-42
2023/04/05 07:24:41;;;;;;;;;;;4.00;70.30;;;;;;5104527;27;88196;-42
2023/04/05 07:27:06;;;;;;;;;;;4.00;70.30;;;;;;5104834;27;87172;-42
2023/04/05 07:29:33;;;;;;;;;;;3.90;70.30;;;;;;5107137;27;87455;-42
2023/04/05 07:31:59;;;;;;;;;;;4.00;70.30;;;;;;5104228;27;87150;-42
2023/04/05 07:34:26;;;;;;;;;;;3.90;70.30;;;;;;5104338;27;88615;-42
2023/04/05 07:36:51;;;;;;;;;;;3.90;70.20;;;;;;5104369;27;87730;-42
2023/04/05 07:39:17;;;;;;;;;;;3.90;70.50;;;;;;5104147;27;87196;-42
2023/04/05 07:41:42;;;;;;;;;;;3.90;70.30;;;;;;5104307;27;87143;-42
2023/04/05 07:44:08;;;;;;;;;;;4.00;70.40;;;;;;5102552;27;89126;-42
2023/04/05 07:46:33;;;;;;;;;;;4.00;70.30;;;;;;5103926;27;87087;-42
2023/04/05 07:48:59;;;;;;;;;;;3.90;70.30;;;;;;5104146;27;87968;-42
2023/04/05 07:51:26;;;;;;;;;;;3.90;70.40;;;;;;5106690;27;88353;-41
2023/04/05 07:53:51;;;;;;;;;;;3.90;70.40;;;;;;5099677;27;88986;-42
2023/04/05 07:56:17;;;;;;;;;;;3.90;70.40;;;;;;5103512;27;89059;-42
2023/04/05 07:58:43;;;;;;;;;;;3.90;70.40;;;;;;5103983;27;87112;-42
2023/04/05 08:01:09;;;;;;;;;;;3.90;70.40;;;;;;5104929;27;87396;-42
2023/04/05 08:03:36;;;;;;;;;;;3.90;70.40;;;;;;5102593;27;89412;-42
2023/04/05 08:06:09;;;;;;;;;;;3.90;70.30;;;;;;5103318;27;87207;-42
2023/04/05 08:08:35;;;;;;;;;;;3.90;70.40;;;;;;5102941;27;88851;-42
2023/04/05 08:11:03;;;;;;;;;;;3.90;70.30;;;;;;5106006;27;89266;-42
2023/04/05 08:13:28;;;;;;;;;;;3.90;70.30;;;;;;5102800;27;88936;-42
2023/04/05 08:15:55;;;;;;;;;;;3.90;70.30;;;;;;5103180;27;89981;-42
2023/04/05 08:18:20;;;;;;;;;;;3.90;70.30;;;;;;5099680;27;88141;-42
2023/04/05 08:20:50;;;;;;;;;;;3.90;70.30;;;;;;5103486;27;87768;-42
2023/04/05 08:23:15;;;;;;;;;;;3.90;70.30;;;;;;5099136;27;89459;-42
2023/04/05 08:25:41;;;;;;;;;;;3.90;70.40;;;;;;5104583;27;86339;-42
2023/04/05 08:28:06;;;;;;;;;;;3.90;70.40;;;;;;5103991;27;89013;-42
2023/04/05 08:30:32;;;;;;;;;;;3.90;70.40;;;;;;5103017;27;88103;-42
2023/04/05 08:32:57;;;;;;;;;;;3.90;70.40;;;;;;5105726;27;88072;-42
2023/04/05 08:35:23;;;;;;;;;;;3.90;70.30;;;;;;5103039;27;89352;-42
2023/04/05 08:37:48;;;;;;;;;;;3.80;70.50;;;;;;5103345;27;87135;-42
2023/04/05 08:40:14;;;;;;;;;;;3.80;70.60;;;;;;5103031;27;88999;-42
2023/04/05 08:42:42;;;;;;;;;;;3.90;70.50;;;;;;5102981;27;89749;-42
2023/04/05 08:45:08;;;;;;;;;;;3.90;70.30;;;;;;5102831;27;87165;-42
2023/04/05 08:47:35;;;;;;;;;;;3.90;70.50;;;;;;5098991;27;88492;-42
2023/04/05 08:50:01;;;;;;;;;;;3.80;71.00;;;;;;5103206;27;88418;-42
2023/04/05 08:52:30;;;;;;;;;;;3.90;70.50;;;;;;5103184;27;87210;-42
2023/04/05 08:54:55;;;;;;;;;;;3.90;70.30;;;;;;5105569;27;89244;-42
2023/04/05 08:57:24;;;;;;;;;;;3.90;70.40;;;;;;5102481;27;88143;-42
2023/04/05 08:59:50;;;;;;;;;;;3.90;70.50;;;;;;5103055;27;88294;-42
2023/04/05 09:02:17;;;;;;;;;;;3.90;70.60;;;;;;5102364;27;88768;-42
2023/04/05 09:04:43;;;;;;;;;;;3.90;70.60;;;;;;5102538;27;87106;-42
2023/04/05 09:07:10;;;;;;;;;;;3.90;70.60;;;;;;5102729;27;87871;-42
2023/04/05 09:09:36;;;;;;;;;;;3.90;70.60;;;;;;5101762;27;89819;-42
2023/04/05 09:12:06;;;;;;;;;;;3.80;70.70;;;;;;5103037;27;87115;-42
2023/04/05 09:14:35;;;;;;;;;;;3.90;70.80;;;;;;5102668;27;88831;-42
2023/04/05 09:17:04;;;;;;;;;;;3.90;70.70;;;;;;5105535;27;88215;-42
2023/04/05 09:19:29;;;;;;;;;;;3.80;70.70;;;;;;5102873;27;87454;-42
2023/04/05 09:22:01;;;;;;;;;;;3.80;70.80;;;;;;5101368;27;90321;-42
2023/04/05 09:24:45;;;;;;;;;;;3.80;70.70;;;;;;5102289;27;87212;-42
2023/04/05 09:27:18;;;;;;;;;;;3.80;70.70;;;;;;5095598;27;88880;-42
2023/04/05 09:29:47;;;;;;;;;;;3.80;70.80;;;;;;5101990;27;89546;-42
2023/04/05 09:32:13;;;;;;;;;;;3.90;70.80;;;;;;5102405;27;87463;-42
2023/04/05 09:34:39;;;;;;;;;;;3.80;70.90;;;;;;5102338;27;87344;-42
2023/04/05 09:37:13;;;;;;;;;;;3.90;70.80;;;;;;5101807;27;89550;-42
2023/04/05 09:39:39;;;;;;;;;;;3.80;70.80;;;;;;5105892;27;86734;-42
2023/04/05 09:42:07;;;;;;;;;;;3.80;70.90;;;;;;5101938;27;89475;-42
2023/04/05 09:45:03;;;;;;;;;;;3.80;70.90;;;;;;5102145;27;87340;-42
2023/04/05 09:47:31;;;;;;;;;;;3.90;70.70;;;;;;5094172;27;88093;-42
2023/04/05 09:50:15;;;;;;;;;;;3.90;70.70;;;;;;5101781;27;89203;-42
2023/04/05 09:52:40;;;;;;;;;;;3.90;70.70;;;;;;5099748;27;87142;-42
2023/04/05 09:55:06;;;;;;;;;;;3.80;70.80;;;;;;5102188;27;88883;-42
2023/04/05 09:57:33;;;;;;;;;;;3.90;71.00;;;;;;5101810;27;89660;-42
2023/04/05 09:59:58;;;;;;;;;;;3.90;71.00;;;;;;5102072;27;87250;-42
2023/04/05 10:02:24;;;;;;;;;;;3.90;71.00;;;;;;5104755;27;87432;-42
2023/04/05 10:04:50;;;;;;;;;;;3.80;71.10;;;;;;5102004;27;86463;-42
2023/04/05 10:07:17;;;;;;;;;;;3.80;71.20;;;;;;5103466;27;87039;-42
2023/04/05 10:09:43;;;;;;;;;;;3.80;71.30;;;;;;5105178;27;87797;-42
2023/04/05 10:12:09;;;;;;;;;;;3.80;71.20;;;;;;5105055;27;88030;-42
2023/04/05 10:14:36;;;;;;;;;;;3.80;71.20;;;;;;5104819;27;88510;-42
2023/04/05 10:17:10;;;;;;;;;;;3.80;71.20;;;;;;5105032;27;89316;-42
2023/04/05 10:19:40;;;;;;;;;;;3.80;71.10;;;;;;5105090;27;87424;-42
2023/04/05 10:22:10;;;;;;;;;;;3.80;71.30;;;;;;5107822;27;88614;-42
2023/04/05 10:24:44;;;;;;;;;;;3.80;71.40;;;;;;5105287;27;87141;-42
2023/04/05 10:27:30;;;;;;;;;;;3.80;71.50;;;;;;5105205;27;88288;-42
2023/04/05 10:30:02;;;;;;;;;;;3.80;71.40;;;;;;5098928;27;88671;-42
2023/04/05 10:32:40;;;;;;;;;;;3.70;71.30;;;;;;5104944;27;87142;-42
2023/04/05 10:35:15;;;;;;;;;;;3.80;71.40;;;;;;5104849;27;88931;-42
2023/04/05 10:37:47;;;;;;;;;;;3.80;71.40;;;;;;5099911;27;90326;-42
2023/04/05 10:40:12;;;;;;;;;;;3.80;71.20;;;;;;5104797;27;87007;-42
2023/04/05 10:42:44;;;;;;;;;;;3.80;70.90;;;;;;5105325;27;87419;-42
2023/04/05 10:45:11;;;;;;;;;;;3.80;71.20;;;;;;5107385;27;88210;-42
2023/04/05 10:47:41;;;;;;;;;;;3.80;71.30;;;;;;5104690;27;87343;-42
2023/04/05 10:50:08;;;;;;;;;;;3.80;71.90;;;;;;5104040;27;89483;-42
2023/04/05 10:52:34;;;;;;;;;;;3.80;71.10;;;;;;5104554;27;87791;-42
2023/04/05 10:55:02;;;;;;;;;;;3.80;71.30;;;;;;5105062;27;86985;-42
2023/04/05 10:57:28;;;;;;;;;;;3.80;71.40;;;;;;5100608;27;88476;-42
2023/04/05 10:59:54;;;;;;;;;;;3.80;71.40;;;;;;5100610;27;87825;-42
2023/04/05 11:02:20;;;;;;;;;;;3.80;71.30;;;;;;5104060;27;88640;-42
2023/04/05 11:04:45;;;;;;;;;;;3.80;71.20;;;;;;5104175;27;89400;-42
2023/04/05 11:07:11;;;;;;;;;;;3.80;71.30;;;;;;5107625;27;87112;-42
2023/04/05 11:09:37;;;;;;;;;;;3.80;71.90;;;;;;5103757;27;89255;-42
2023/04/05 11:12:03;;;;;;;;;;;3.80;71.30;;;;;;5104291;27;87100;-41
2023/04/05 11:14:35;;;;;;;;;;;3.80;71.30;;;;;;5103875;27;88559;-41
2023/04/05 11:17:01;;;;;;;;;;;3.80;71.60;;;;;;5103655;27;89408;-41
2023/04/05 11:19:42;;;;;;;;;;;3.90;71.40;;;;;;5103213;27;86339;-41
2023/04/05 11:22:08;;;;;;;;;;;3.90;71.30;;;;;;5102470;27;87448;-41
2023/04/05 11:25:08;;;;;;;;;;;3.80;71.40;;;;;;5103924;27;89851;-41
2023/04/05 11:27:36;;;;;;;;;;;3.80;71.60;;;;;;5090910;27;88256;-41
2023/04/05 11:30:03;;;;;;;;;;;3.80;71.60;;;;;;5106790;27;89646;-41
2023/04/05 11:32:41;;;;;;;;;;;3.80;71.50;;;;;;5103374;27;87627;-41
2023/04/05 11:35:12;;;;;;;;;;;3.80;71.70;;;;;;5100292;27;88660;-41
2023/04/05 11:37:57;;;;;;;;;;;3.80;72.30;;;;;;5103909;27;89184;-41
2023/04/05 11:40:24;;;;;;;;;;;3.80;71.70;;;;;;5101147;27;87580;-41
2023/04/05 11:42:56;;;;;;;;;;;3.80;71.70;;;;;;5100054;27;88657;-41
2023/04/05 11:45:22;;;;;;;;;;;3.80;71.80;;;;;;5104211;27;87584;-41
2023/04/05 11:47:48;;;;;;;;;;;3.80;71.70;;;;;;5100399;27;87233;-41
2023/04/05 11:50:13;;;;;;;;;;;3.80;71.60;;;;;;5103854;27;89070;-41
2023/04/05 11:52:39;;;;;;;;;;;3.70;71.70;;;;;;5105772;27;90598;-41
2023/04/05 11:55:05;;;;;;;;;;;3.70;71.80;;;;;;5102662;27;89688;-41
2023/04/05 11:57:31;;;;;;;;;;;3.70;71.80;;;;;;5103344;27;87634;-41
2023/04/05 11:59:57;;;;;;;;;;;3.70;71.60;;;;;;5103694;27;87182;-41
2023/04/05 12:02:23;;;;;;;;;;;3.80;71.60;;;;;;5103877;27;87366;-41
2023/04/05 12:04:58;;;;;;;;;;;3.80;71.60;;;;;;5102972;27;89551;-41
2023/04/05 12:07:35;;;;;;;;;;;3.80;71.50;;;;;;5103573;27;87353;-42
2023/04/05 12:10:04;;;;;;;;;;;3.80;71.50;;;;;;5100732;27;88553;-41
2023/04/05 12:12:39;;;;;;;;;;;3.80;71.70;;;;;;5102460;27;89415;-41
2023/04/05 12:15:07;;;;;;;;;;;3.80;71.80;;;;;;5106138;27;87481;-41
2023/04/05 12:17:53;;;;;;;;;;;3.80;71.70;;;;;;5102376;27;88940;-41
2023/04/05 12:20:25;;;;;;;;;;;3.80;71.70;;;;;;5099409;27;87063;-41
2023/04/05 12:22:51;;;;;;;;;;;3.80;71.70;;;;;;5103016;27;88642;-41
2023/04/05 12:25:17;;;;;;;;;;;3.80;71.80;;;;;;5103127;27;87972;-41
2023/04/05 12:27:42;;;;;;;;;;;3.80;71.70;;;;;;5103366;27;87071;-41
2023/04/05 12:30:13;;;;;;;;;;;3.80;71.60;;;;;;5102680;27;88753;-41
2023/04/05 12:32:52;;;;;;;;;;;3.80;71.50;;;;;;5102786;27;89264;-41
2023/04/05 12:35:23;;;;;;;;;;;3.80;71.50;;;;;;5106418;27;86406;-41
2023/04/05 12:37:49;;;;;;;;;;;3.80;71.60;;;;;;5102636;27;89334;-41
2023/04/05 12:40:19;;;;;;;;;;;3.80;71.60;;;;;;5102862;27;87153;-41
2023/04/05 12:42:45;;;;;;;;;;;3.80;71.60;;;;;;5101903;27;89097;-41
2023/04/05 12:45:11;;;;;;;;;;;3.80;71.60;;;;;;5102408;27;89418;-41
2023/04/05 12:47:46;;;;;;;;;;;3.80;71.60;;;;;;5102983;27;87078;-41
2023/04/05 12:50:12;;;;;;;;;;;3.90;71.70;;;;;;5102899;27;87623;-41
2023/04/05 12:52:38;;;;;;;;;;;3.80;71.50;;;;;;5102353;27;88572;-42
2023/04/05 12:55:13;;;;;;;;;;;3.80;71.70;;;;;;5102683;27;88119;-41
2023/04/05 12:57:38;;;;;;;;;;;3.80;71.60;;;;;;5105447;27;88814;-41
2023/04/05 13:00:04;;;;;;;;;;;3.80;71.80;;;;;;5103496;27;86466;-41
2023/04/05 13:02:30;;;;;;;;;;;3.80;71.70;;;;;;5102466;27;88005;-41
2023/04/05 13:04:55;;;;;;;;;;;3.90;71.60;;;;;;5102494;27;89305;-41
2023/04/05 13:07:20;;;;;;;;;;;3.90;71.70;;;;;;5101758;27;88078;-41
2023/04/05 13:09:46;;;;;;;;;;;3.90;71.70;;;;;;5102314;27;88789;-41
2023/04/05 13:12:11;;;;;;;;;;;3.80;71.70;;;;;;5102422;27;88198;-41
2023/04/05 13:14:37;;;;;;;;;;;3.80;71.70;;;;;;5102082;27;87725;-41
2023/04/05 13:17:02;;;;;;;;;;;3.80;71.70;;;;;;5102711;27;87463;-41
2023/04/05 13:19:28;;;;;;;;;;;3.80;71.60;;;;;;5105239;27;89568;-41
2023/04/05 13:21:53;;;;;;;;;;;3.90;71.60;;;;;;5102151;27;88412;-41
2023/04/05 13:24:19;;;;;;;;;;;3.90;71.70;;;;;;5102555;27;87306;-41
2023/04/05 13:26:44;;;;;;;;;;;3.90;71.60;;;;;;5102119;27;87057;-41
2023/04/05 13:29:10;;;;;;;;;;;3.90;71.60;;;;;;5101966;27;88829;-41
2023/04/05 13:31:35;;;;;;;;;;;3.90;71.60;;;;;;5101022;27;88779;-41
2023/04/05 13:34:01;;;;;;;;;;;3.90;71.70;;;;;;5102184;27;87093;-41
2023/04/05 13:36:26;;;;;;;;;;;3.90;71.70;;;;;;5102035;27;89058;-41
2023/04/05 13:38:52;;;;;;;;;;;3.90;71.70;;;;;;5101821;27;88799;-41
2023/04/05 13:41:17;;;;;;;;;;;3.90;71.60;;;;;;5105487;27;87513;-41
2023/04/05 13:43:43;;;;;;;;;;;3.90;71.80;;;;;;5105142;27;88377;-41
2023/04/05 13:46:08;;;;;;;;;;;3.90;71.80;;;;;;5105719;27;87647;-41
2023/04/05 13:48:34;;;;;;;;;;;3.90;71.80;;;;;;5106398;27;87871;-41
2023/04/05 13:50:59;;;;;;;;;;;3.90;71.70;;;;;;5105707;27;88748;-41
2023/04/05 13:53:25;;;;;;;;;;;3.90;71.60;;;;;;5105459;27;87745;-41
2023/04/05 13:55:50;;;;;;;;;;;3.90;71.60;;;;;;5104694;27;88672;-41
2023/04/05 13:58:16;;;;;;;;;;;3.90;71.80;;;;;;5105231;27;88148;-41
2023/04/05 14:00:41;;;;;;;;;;;3.90;71.60;;;;;;5105675;27;87165;-41
2023/04/05 14:03:07;;;;;;;;;;;3.90;71.70;;;;;;5108422;27;87446;-41
2023/04/05 14:05:32;;;;;;;;;;;3.90;71.80;;;;;;5105587;27;87434;-41
2023/04/05 14:07:58;;;;;;;;;;;3.90;71.70;;;;;;5105623;27;87524;-41
2023/04/05 14:10:23;;;;;;;;;;;3.90;71.80;;;;;;5105119;27;87342;-41
2023/04/05 14:12:49;;;;;;;;;;;3.90;71.60;;;;;;5106153;27;86374;-41
2023/04/05 14:15:14;;;;;;;;;;;3.90;71.80;;;;;;5105057;27;86996;-41
2023/04/05 14:17:40;;;;;;;;;;;3.90;71.80;;;;;;5102381;27;89632;-41
2023/04/05 14:20:06;;;;;;;;;;;4.00;71.70;;;;;;5102857;27;88125;-41
2023/04/05 14:22:32;;;;;;;;;;;4.00;71.60;;;;;;5107701;27;89742;-41
2023/04/05 14:24:57;;;;;;;;;;;4.00;71.70;;;;;;5104801;27;87198;-41
2023/04/05 14:27:25;;;;;;;;;;;3.90;71.70;;;;;;5104873;27;88271;-41
2023/04/05 14:29:57;;;;;;;;;;;3.90;71.70;;;;;;5104567;27;89927;-41
2023/04/05 14:32:25;;;;;;;;;;;4.00;71.60;;;;;;5104779;27;87036;-41